Time;durP1;ratioP1;P1;durP2;ratioP2;P2;SDS_P1;SDS_P2;PMS_P1;PMS_P2;Temp;Humidity;BMP_temperature;BMP_pressure;BME280_temperature;BME280_humidity;BME280_pressure;Samples;Min_cycle;Max_cycle;Signal;HPM_P1;HPM_P2
2022/03/01 00:01:03;;;;;;;14.82;7.97;;;-3.50;99.90;;;;;;5089141;28;20073;-48
2022/03/01 00:03:28;;;;;;;16.30;8.18;;;-3.40;99.90;;;;;;5086766;28;20032;-49
2022/03/01 00:05:54;;;;;;;12.98;6.75;;;-3.40;99.90;;;;;;5088982;28;20338;-53
2022/03/01 00:08:19;;;;;;;14.35;7.13;;;-3.40;99.90;;;;;;5086907;28;20132;-49
2022/03/01 00:10:45;;;;;;;11.85;6.63;;;-3.50;99.90;;;;;;5088606;28;20027;-50
2022/03/01 00:13:10;;;;;;;14.63;6.85;;;-3.60;99.90;;;;;;5086814;28;20138;-47
2022/03/01 00:15:37;;;;;;;17.55;7.63;;;-3.60;99.90;;;;;;5088845;28;20048;-50
2022/03/01 00:18:02;;;;;;;15.43;8.45;;;-3.70;99.90;;;;;;5086672;28;20020;-48
2022/03/01 00:20:28;;;;;;;17.60;8.13;;;-3.60;99.90;;;;;;5088787;28;20032;-46
2022/03/01 00:22:54;;;;;;;15.48;7.93;;;-3.70;99.90;;;;;;5085412;28;20202;-49
2022/03/01 00:25:19;;;;;;;14.48;7.88;;;-3.60;99.90;;;;;;5068544;28;20119;-47
2022/03/01 00:27:44;;;;;;;12.32;7.30;;;-3.50;99.90;;;;;;5087795;28;20032;-51
2022/03/01 00:30:11;;;;;;;17.75;7.82;;;-3.60;99.90;;;;;;5084621;28;20542;-48
2022/03/01 00:32:37;;;;;;;18.77;8.27;;;-3.50;99.90;;;;;;5088618;28;20024;-48
2022/03/01 00:35:03;;;;;;;16.17;8.73;;;-3.50;99.90;;;;;;5088504;28;20419;-47
2022/03/01 00:37:28;;;;;;;18.05;7.68;;;-3.50;99.90;;;;;;5086552;28;20039;-47
2022/03/01 00:39:54;;;;;;;15.77;7.82;;;-3.60;99.90;;;;;;5088683;28;20056;-50
2022/03/01 00:42:19;;;;;;;13.02;6.90;;;-3.60;99.90;;;;;;5072095;28;20038;-49
2022/03/01 00:44:45;;;;;;;17.50;8.48;;;-3.60;99.90;;;;;;5088203;28;20044;-48
2022/03/01 00:47:10;;;;;;;15.30;7.20;;;-3.70;99.90;;;;;;5069303;28;20060;-48
2022/03/01 00:49:36;;;;;;;19.50;8.82;;;-3.70;99.90;;;;;;5087680;28;20488;-49
2022/03/01 00:52:02;;;;;;;16.35;8.43;;;-3.80;99.90;;;;;;5070506;28;20043;-50
2022/03/01 00:54:27;;;;;;;14.88;6.95;;;-3.70;99.90;;;;;;5087758;28;20109;-47
2022/03/01 00:56:52;;;;;;;16.17;8.05;;;-3.70;99.90;;;;;;5071515;28;20082;-47
2022/03/01 00:59:18;;;;;;;15.88;8.15;;;-3.60;99.90;;;;;;5087664;28;20028;-47
2022/03/01 01:01:43;;;;;;;12.82;6.88;;;-3.70;99.90;;;;;;5072830;28;20458;-49
2022/03/01 01:04:09;;;;;;;16.45;7.97;;;-3.70;99.90;;;;;;5087523;28;20071;-47
2022/03/01 01:06:34;;;;;;;15.13;8.60;;;-3.80;99.90;;;;;;5073733;28;20480;-50
2022/03/01 01:09:00;;;;;;;18.48;8.73;;;-3.70;99.90;;;;;;5087496;28;20024;-49
2022/03/01 01:11:25;;;;;;;16.20;8.85;;;-3.70;99.90;;;;;;5076753;28;20032;-47
2022/03/01 01:13:51;;;;;;;16.00;8.23;;;-3.70;99.90;;;;;;5091409;28;20028;-46
2022/03/01 01:16:17;;;;;;;17.42;7.80;;;-3.70;99.90;;;;;;5089692;28;20024;-50
2022/03/01 01:18:43;;;;;;;17.00;8.80;;;-3.80;99.90;;;;;;5091702;28;20120;-46
2022/03/01 01:21:10;;;;;;;16.75;8.68;;;-3.70;99.90;;;;;;5089861;28;20024;-45
2022/03/01 01:23:36;;;;;;;18.92;8.57;;;-3.80;99.90;;;;;;5091125;28;20131;-47
2022/03/01 01:26:01;;;;;;;16.70;9.35;;;-3.80;99.90;;;;;;5089773;28;20123;-49
2022/03/01 01:28:27;;;;;;;13.65;7.68;;;-3.80;99.90;;;;;;5091393;28;20526;-47
2022/03/01 01:30:53;;;;;;;16.05;7.55;;;-3.70;99.90;;;;;;5089679;28;20048;-48
2022/03/01 01:33:19;;;;;;;16.55;8.00;;;-3.70;99.90;;;;;;5091487;28;20042;-50
2022/03/01 01:35:45;;;;;;;15.05;7.53;;;-3.80;99.90;;;;;;5089273;28;20113;-49
2022/03/01 01:38:10;;;;;;;14.95;6.75;;;-3.90;99.90;;;;;;5091803;28;20438;-51
2022/03/01 01:40:36;;;;;;;15.07;7.63;;;-4.00;99.90;;;;;;5089145;28;20036;-48
2022/03/01 01:43:03;;;;;;;17.48;8.50;;;-4.00;99.90;;;;;;5085579;28;20089;-49
2022/03/01 01:45:29;;;;;;;16.02;7.43;;;-4.00;99.90;;;;;;5088954;28;20036;-51
2022/03/01 01:47:56;;;;;;;15.48;7.82;;;-4.00;99.90;;;;;;5091314;28;20377;-46
2022/03/01 01:50:23;;;;;;;15.05;7.20;;;-4.00;99.90;;;;;;5089372;28;20051;-46
2022/03/01 01:52:50;;;;;;;17.75;7.47;;;-4.10;99.90;;;;;;5091238;28;20020;-48
2022/03/01 01:55:17;;;;;;;14.30;7.32;;;-4.10;99.90;;;;;;5089006;28;20092;-48
2022/03/01 01:57:43;;;;;;;18.10;8.10;;;-4.20;99.90;;;;;;5091408;28;20115;-46
2022/03/01 02:00:10;;;;;;;13.27;6.80;;;-4.20;99.90;;;;;;5088951;28;20505;-47
2022/03/01 02:02:36;;;;;;;13.30;6.95;;;-4.20;99.90;;;;;;5091163;28;20487;-48
2022/03/01 02:05:02;;;;;;;18.45;7.95;;;-4.20;99.90;;;;;;5090832;28;20046;-48
2022/03/01 02:07:28;;;;;;;17.35;7.75;;;-4.40;99.90;;;;;;5089295;28;20032;-48
2022/03/01 02:09:54;;;;;;;15.60;8.02;;;-4.40;99.90;;;;;;5072656;28;20024;-49
2022/03/01 02:12:19;;;;;;;15.80;8.52;;;-4.40;99.90;;;;;;5070211;28;20032;-50
2022/03/01 02:14:45;;;;;;;14.55;8.35;;;-4.50;99.90;;;;;;5090016;28;20023;-49
2022/03/01 02:17:11;;;;;;;15.90;7.43;;;-4.40;99.90;;;;;;5071309;28;20028;-46
2022/03/01 02:19:38;;;;;;;21.20;9.35;;;-4.40;99.90;;;;;;5089920;28;20488;-50
2022/03/01 02:22:06;;;;;;;15.02;8.00;;;-4.30;99.90;;;;;;5071506;28;20028;-50
2022/03/01 02:24:31;;;;;;;13.02;7.35;;;-4.30;99.90;;;;;;5089569;28;20268;-51
2022/03/01 02:26:59;;;;;;;23.30;10.70;;;-4.30;99.90;;;;;;5073285;28;20397;-53
2022/03/01 02:29:25;;;;;;;20.27;8.57;;;-4.40;99.90;;;;;;5089891;28;20077;-46
2022/03/01 02:31:53;;;;;;;15.70;7.75;;;-4.40;99.90;;;;;;5073942;28;20024;-47
2022/03/01 02:34:19;;;;;;;19.23;9.13;;;-4.30;99.90;;;;;;5089976;28;20093;-49
2022/03/01 02:36:45;;;;;;;21.67;9.30;;;-4.20;99.90;;;;;;5074486;28;20402;-51
2022/03/01 02:39:11;;;;;;;18.10;9.63;;;-4.20;99.90;;;;;;5089670;28;20032;-49
2022/03/01 02:41:38;;;;;;;14.82;8.52;;;-4.20;99.90;;;;;;5074853;28;20173;-49
2022/03/01 02:44:04;;;;;;;17.23;8.45;;;-4.20;99.90;;;;;;5090192;28;20020;-50
2022/03/01 02:46:30;;;;;;;16.88;7.43;;;-4.30;99.90;;;;;;5076510;28;20142;-47
2022/03/01 02:48:55;;;;;;;12.63;6.85;;;-4.30;99.90;;;;;;5089315;28;20395;-47
2022/03/01 02:51:21;;;;;;;17.50;8.20;;;-4.30;99.90;;;;;;5088155;28;20031;-49
2022/03/01 02:53:46;;;;;;;15.77;7.57;;;-4.30;99.90;;;;;;5089869;28;20390;-47
2022/03/01 02:56:12;;;;;;;16.27;7.75;;;-4.40;99.90;;;;;;5088021;28;20062;-48
2022/03/01 02:58:37;;;;;;;14.13;6.38;;;-4.40;99.90;;;;;;5089781;28;20063;-46
2022/03/01 03:01:03;;;;;;;16.90;7.60;;;-4.50;99.90;;;;;;5087620;28;20044;-47
2022/03/01 03:03:28;;;;;;;15.85;7.43;;;-4.50;99.90;;;;;;5089725;28;20495;-48
2022/03/01 03:05:54;;;;;;;13.07;6.55;;;-4.60;99.90;;;;;;5087570;28;20047;-50
2022/03/01 03:08:19;;;;;;;17.70;8.07;;;-4.70;99.90;;;;;;5089923;28;20020;-48
2022/03/01 03:10:45;;;;;;;15.95;8.60;;;-4.70;99.90;;;;;;5075101;28;20039;-48
2022/03/01 03:13:11;;;;;;;20.95;9.43;;;-4.70;99.90;;;;;;5088524;28;20036;-49
2022/03/01 03:15:37;;;;;;;14.63;7.32;;;-4.60;99.90;;;;;;5087175;28;20043;-48
2022/03/01 03:18:04;;;;;;;17.50;9.27;;;-4.50;99.90;;;;;;5089301;28;20102;-48
2022/03/01 03:20:29;;;;;;;18.92;9.25;;;-4.40;99.90;;;;;;5087366;28;20028;-48
2022/03/01 03:22:55;;;;;;;20.77;9.38;;;-4.50;99.90;;;;;;5088883;28;20036;-50
2022/03/01 03:25:20;;;;;;;15.07;6.90;;;-4.50;99.90;;;;;;5087456;28;20052;-48
2022/03/01 03:27:46;;;;;;;17.27;8.02;;;-4.50;99.90;;;;;;5089331;28;20063;-47
2022/03/01 03:30:11;;;;;;;19.48;9.35;;;-4.50;99.90;;;;;;5087110;28;20464;-46
2022/03/01 03:32:37;;;;;;;15.68;8.05;;;-4.50;99.90;;;;;;5089268;28;20032;-47
2022/03/01 03:35:04;;;;;;;17.70;8.93;;;-4.60;99.90;;;;;;5086827;28;20031;-46
2022/03/01 03:37:30;;;;;;;15.77;8.23;;;-4.50;99.90;;;;;;5089242;28;20043;-49
2022/03/01 03:39:56;;;;;;;16.40;7.38;;;-4.60;99.90;;;;;;5087231;28;20052;-49
2022/03/01 03:42:22;;;;;;;16.13;8.18;;;-4.60;99.90;;;;;;5082482;28;20032;-47
2022/03/01 03:44:47;;;;;;;16.85;8.85;;;-4.60;99.90;;;;;;5086974;28;20424;-47
2022/03/01 03:47:13;;;;;;;20.05;10.02;;;-4.60;99.90;;;;;;5089004;28;20032;-50
2022/03/01 03:49:39;;;;;;;17.05;8.75;;;-4.60;99.90;;;;;;5087029;28;20032;-46
2022/03/01 03:52:06;;;;;;;15.57;8.30;;;-4.60;99.90;;;;;;5088936;28;20016;-46
2022/03/01 03:54:32;;;;;;;18.85;8.98;;;-4.50;99.90;;;;;;5086656;28;20038;-45
2022/03/01 03:56:58;;;;;;;23.02;10.10;;;-4.60;99.90;;;;;;5089405;28;20044;-50
2022/03/01 03:59:24;;;;;;;16.38;8.98;;;-4.50;99.90;;;;;;5086726;28;20075;-47
2022/03/01 04:01:50;;;;;;;16.67;8.13;;;-4.50;99.90;;;;;;5088867;28;20081;-46
2022/03/01 04:04:15;;;;;;;16.67;9.15;;;-4.50;99.90;;;;;;5088639;28;20036;-50
2022/03/01 04:06:41;;;;;;;18.58;9.05;;;-4.60;99.90;;;;;;5086759;28;20507;-49
2022/03/01 04:09:06;;;;;;;16.88;9.38;;;-4.60;99.90;;;;;;5088607;28;20109;-50
2022/03/01 04:11:33;;;;;;;19.55;8.38;;;-4.60;99.90;;;;;;5068140;28;20044;-49
2022/03/01 04:13:59;;;;;;;14.77;8.63;;;-4.60;99.90;;;;;;5088464;28;20082;-48
2022/03/01 04:16:24;;;;;;;20.15;9.63;;;-4.70;99.90;;;;;;5069279;28;20024;-49
2022/03/01 04:18:50;;;;;;;20.55;9.38;;;-4.70;99.90;;;;;;5088002;28;20107;-48
2022/03/01 04:21:16;;;;;;;21.88;10.02;;;-4.70;99.90;;;;;;5070542;28;20108;-51
2022/03/01 04:23:42;;;;;;;17.15;8.80;;;-4.70;99.90;;;;;;5087771;28;20051;-49
2022/03/01 04:26:08;;;;;;;22.45;9.95;;;-4.70;99.90;;;;;;5071615;28;20033;-48
2022/03/01 04:28:33;;;;;;;22.90;10.35;;;-4.70;99.90;;;;;;5087736;28;20058;-49
2022/03/01 04:31:00;;;;;;;29.63;13.07;;;-4.70;99.90;;;;;;5072868;28;20033;-48
2022/03/01 04:33:25;;;;;;;22.25;11.20;;;-4.70;99.90;;;;;;5087799;28;20103;-54
2022/03/01 04:35:51;;;;;;;20.75;10.63;;;-4.70;99.90;;;;;;5073992;28;20111;-50
2022/03/01 04:38:17;;;;;;;23.30;10.98;;;-4.70;99.90;;;;;;5087756;28;20043;-50
2022/03/01 04:40:43;;;;;;;23.33;11.25;;;-4.60;99.90;;;;;;5074899;28;20528;-53
2022/03/01 04:43:08;;;;;;;22.10;11.07;;;-4.70;99.90;;;;;;5081232;28;20032;-52
2022/03/01 04:45:34;;;;;;;21.02;10.10;;;-4.60;99.90;;;;;;5086756;28;20407;-50
2022/03/01 04:48:00;;;;;;;21.73;9.80;;;-4.60;99.90;;;;;;5092517;28;20159;-52
2022/03/01 04:50:26;;;;;;;25.02;12.00;;;-4.50;99.90;;;;;;5090452;28;20034;-49
2022/03/01 04:52:52;;;;;;;26.80;11.95;;;-4.50;99.90;;;;;;5092337;28;20032;-48
2022/03/01 04:55:18;;;;;;;24.70;11.82;;;-4.50;99.90;;;;;;5090298;28;20402;-48
2022/03/01 04:57:44;;;;;;;25.13;11.07;;;-4.50;99.90;;;;;;5091936;28;20028;-49
2022/03/01 05:00:11;;;;;;;18.13;9.70;;;-4.40;99.90;;;;;;5087745;28;20024;-52
2022/03/01 05:02:39;;;;;;;23.15;10.73;;;-4.40;99.90;;;;;;5071974;28;20024;-51
2022/03/01 05:05:10;;;;;;;24.02;11.77;;;-4.40;99.90;;;;;;5091742;28;20069;-52
2022/03/01 05:07:39;;;;;;;18.35;9.50;;;-4.40;99.90;;;;;;5051856;28;20047;-50
2022/03/01 05:10:07;;;;;;;25.58;11.82;;;-4.50;99.90;;;;;;5091604;28;20024;-52
2022/03/01 05:12:32;;;;;;;24.33;11.23;;;-4.40;99.90;;;;;;5091928;28;20035;-51
2022/03/01 05:14:58;;;;;;;22.27;11.43;;;-4.40;99.90;;;;;;5091977;28;20020;-51
2022/03/01 05:17:23;;;;;;;24.15;12.00;;;-4.50;99.90;;;;;;5070719;28;20056;-51
2022/03/01 05:19:49;;;;;;;21.83;10.30;;;-4.40;99.90;;;;;;5091089;28;20403;-51
2022/03/01 05:22:14;;;;;;;25.45;10.60;;;-4.50;99.90;;;;;;5071988;28;20454;-54
2022/03/01 05:24:39;;;;;;;24.33;11.45;;;-4.50;99.90;;;;;;5090713;28;20086;-51
2022/03/01 05:27:05;;;;;;;19.25;9.68;;;-4.60;99.90;;;;;;5088373;28;20119;-53
2022/03/01 05:29:31;;;;;;;19.55;9.20;;;-4.60;99.90;;;;;;5091610;28;20483;-51
2022/03/01 05:31:56;;;;;;;19.05;9.07;;;-4.70;99.90;;;;;;5073772;28;20029;-54
2022/03/01 05:34:22;;;;;;;21.73;9.77;;;-4.70;99.90;;;;;;5090612;28;20112;-52
2022/03/01 05:36:48;;;;;;;21.48;9.40;;;-4.70;99.90;;;;;;5074651;28;20055;-51
2022/03/01 05:39:13;;;;;;;21.73;10.98;;;-4.80;99.90;;;;;;5090904;28;20028;-52
2022/03/01 05:41:39;;;;;;;20.60;10.00;;;-4.70;99.90;;;;;;5077521;28;20035;-51
2022/03/01 05:44:05;;;;;;;17.83;9.75;;;-4.70;99.90;;;;;;5069881;28;20077;-55
2022/03/01 05:46:30;;;;;;;15.65;9.07;;;-4.70;99.90;;;;;;5076990;28;20033;-52
2022/03/01 05:48:56;;;;;;;19.77;9.98;;;-4.70;99.90;;;;;;5090613;28;20028;-48
2022/03/01 05:51:21;;;;;;;29.60;11.93;;;-4.70;99.90;;;;;;5078476;28;20028;-50
2022/03/01 05:53:47;;;;;;;25.20;11.07;;;-4.60;99.90;;;;;;5090456;28;20028;-53
2022/03/01 05:56:13;;;;;;;26.23;10.38;;;-4.60;99.90;;;;;;5089045;28;20435;-52
2022/03/01 05:58:38;;;;;;;17.35;9.25;;;-4.60;99.90;;;;;;5091155;28;20377;-50
2022/03/01 06:01:04;;;;;;;23.20;10.93;;;-4.60;99.90;;;;;;5089378;28;20495;-48
2022/03/01 06:03:29;;;;;;;20.08;9.27;;;-4.70;99.90;;;;;;5091011;28;20032;-50
2022/03/01 06:05:55;;;;;;;19.27;9.52;;;-4.70;99.90;;;;;;5088837;28;20532;-51
2022/03/01 06:08:21;;;;;;;19.70;9.18;;;-4.70;99.90;;;;;;5091146;28;20082;-53
2022/03/01 06:10:46;;;;;;;19.65;8.50;;;-4.70;99.90;;;;;;5088787;28;20426;-50
2022/03/01 06:13:12;;;;;;;13.77;7.10;;;-4.70;99.90;;;;;;5091061;28;20058;-51
2022/03/01 06:15:37;;;;;;;19.50;6.95;;;-4.70;99.90;;;;;;5086862;28;20077;-50
2022/03/01 06:18:03;;;;;;;15.55;7.90;;;-4.70;99.90;;;;;;5090785;28;20024;-50
2022/03/01 06:20:29;;;;;;;18.98;7.97;;;-4.80;99.90;;;;;;5088914;28;20024;-54
2022/03/01 06:22:54;;;;;;;13.38;6.53;;;-4.80;99.90;;;;;;5090429;28;20036;-49
2022/03/01 06:25:20;;;;;;;18.80;7.57;;;-4.80;99.90;;;;;;5088748;28;20093;-52
2022/03/01 06:27:45;;;;;;;14.65;6.85;;;-4.80;99.90;;;;;;5090508;28;20028;-51
2022/03/01 06:30:11;;;;;;;18.35;7.82;;;-4.80;99.90;;;;;;5088527;28;20066;-50
2022/03/01 06:32:37;;;;;;;14.10;8.02;;;-4.60;99.90;;;;;;5090500;28;20020;-49
2022/03/01 06:35:04;;;;;;;18.17;7.72;;;-3.30;99.90;;;;;;5088520;28;20089;-49
2022/03/01 06:37:30;;;;;;;17.63;8.00;;;-1.30;99.90;;;;;;5072555;28;20070;-53
2022/03/01 06:39:56;;;;;;;19.55;8.55;;;-0.50;99.90;;;;;;5073226;28;20040;-53
2022/03/01 06:42:22;;;;;;;17.48;8.95;;;1.10;90.10;;;;;;5074970;28;20132;-55
2022/03/01 06:44:47;;;;;;;16.40;8.48;;;2.40;68.60;;;;;;5087923;28;20036;-52
2022/03/01 06:47:13;;;;;;;16.75;8.13;;;3.70;57.60;;;;;;5087050;28;20127;-53
2022/03/01 06:49:39;;;;;;;15.43;8.35;;;4.80;48.80;;;;;;5075129;28;20108;-48
2022/03/01 06:52:05;;;;;;;14.40;8.10;;;5.70;41.00;;;;;;5086567;28;20495;-53
2022/03/01 06:54:30;;;;;;;15.40;7.85;;;6.40;34.60;;;;;;5088940;28;20035;-53
2022/03/01 06:56:56;;;;;;;21.23;9.35;;;6.80;24.30;;;;;;5086626;28;20024;-52
2022/03/01 06:59:24;;;;;;;16.30;8.23;;;7.40;27.20;;;;;;5089315;28;20423;-52
2022/03/01 07:01:50;;;;;;;17.92;8.85;;;7.90;21.00;;;;;;5086852;28;20051;-52
2022/03/01 07:04:15;;;;;;;18.15;9.65;;;8.40;24.00;;;;;;5088940;28;20407;-54
2022/03/01 07:06:40;;;;;;;15.63;9.77;;;8.70;22.70;;;;;;5084994;28;20047;-52
2022/03/01 07:09:06;;;;;;;15.93;8.80;;;9.50;20.50;;;;;;5086151;28;20020;-51
2022/03/01 07:11:31;;;;;;;15.57;9.40;;;9.90;18.10;;;;;;5089005;28;20501;-53
2022/03/01 07:13:57;;;;;;;18.17;8.88;;;10.20;16.10;;;;;;5068574;28;20208;-53
2022/03/01 07:16:22;;;;;;;15.65;9.23;;;10.40;16.00;;;;;;5087607;28;20024;-52
2022/03/01 07:18:48;;;;;;;15.32;8.63;;;10.50;12.20;;;;;;5085189;28;20028;-55
2022/03/01 07:21:14;;;;;;;18.73;9.90;;;10.60;12.50;;;;;;5086977;28;20028;-52
2022/03/01 07:23:40;;;;;;;17.70;9.35;;;10.70;15.70;;;;;;5084814;28;20110;-54
2022/03/01 07:26:07;;;;;;;14.90;9.27;;;10.20;14.40;;;;;;5066728;28;20420;-56
2022/03/01 07:28:34;;;;;;;17.75;9.45;;;10.60;10.70;;;;;;5086326;28;20024;-56
2022/03/01 07:30:59;;;;;;;16.55;9.35;;;10.20;10.00;;;;;;5065693;28;20017;-58
2022/03/01 07:33:25;;;;;;;17.45;10.02;;;8.90;12.40;;;;;;5066840;28;20659;-56
2022/03/01 07:35:50;;;;;;;17.92;10.30;;;9.10;14.50;;;;;;5087621;28;20574;-57
2022/03/01 07:38:16;;;;;;;15.70;8.55;;;9.00;14.10;;;;;;5068881;28;20024;-57
2022/03/01 07:40:42;;;;;;;14.15;8.30;;;10.00;17.50;;;;;;5087677;28;20119;-55
2022/03/01 07:43:07;;;;;;;18.58;9.52;;;10.70;12.60;;;;;;5066346;28;20054;-58
2022/03/01 07:45:36;;;;;;;16.80;8.52;;;10.60;11.00;;;;;;5087130;28;20044;-59
2022/03/01 07:48:03;;;;;;;15.80;8.48;;;11.40;13.70;;;;;;5070978;28;20028;-58
2022/03/01 07:50:30;;;;;;;16.20;8.18;;;11.80;10.50;;;;;;5087569;28;20085;-57
2022/03/01 07:52:55;;;;;;;17.25;9.10;;;12.40;10.30;;;;;;5071394;28;20055;-56
2022/03/01 07:55:21;;;;;;;15.82;8.82;;;12.30;11.00;;;;;;5087551;28;20036;-58
2022/03/01 07:57:47;;;;;;;14.77;8.35;;;11.90;8.50;;;;;;5072410;28;20110;-58
2022/03/01 08:00:13;;;;;;;14.48;8.77;;;12.20;10.20;;;;;;5087465;28;20502;-58
2022/03/01 08:02:40;;;;;;;17.85;8.57;;;13.10;10.80;;;;;;5073601;28;20055;-56
2022/03/01 08:05:07;;;;;;;16.30;9.52;;;13.30;9.10;;;;;;5087589;28;20039;-59
2022/03/01 08:07:33;;;;;;;14.52;8.20;;;13.00;7.50;;;;;;5074279;28;20031;-57
2022/03/01 08:09:59;;;;;;;16.42;8.25;;;13.20;8.00;;;;;;5087074;28;20024;-59
2022/03/01 08:12:25;;;;;;;17.00;8.27;;;13.90;5.90;;;;;;5085905;28;20048;-58
2022/03/01 08:14:51;;;;;;;13.45;7.28;;;13.10;9.60;;;;;;5087585;28;20565;-58
2022/03/01 08:17:17;;;;;;;13.85;8.45;;;12.80;7.20;;;;;;5085936;28;20451;-56
2022/03/01 08:19:43;;;;;;;13.75;8.52;;;12.80;8.20;;;;;;5087577;28;20047;-58
2022/03/01 08:22:09;;;;;;;11.23;7.93;;;12.90;5.80;;;;;;5088984;28;20032;-57
2022/03/01 08:24:35;;;;;;;13.75;8.13;;;13.10;8.10;;;;;;5091509;28;20048;-58
2022/03/01 08:27:00;;;;;;;12.60;7.93;;;13.60;5.30;;;;;;5089901;28;20086;-59
2022/03/01 08:29:29;;;;;;;15.38;8.30;;;13.80;4.80;;;;;;5092203;28;20061;-58
2022/03/01 08:31:54;;;;;;;12.23;7.35;;;13.60;5.80;;;;;;5089680;28;20032;-59
2022/03/01 08:34:20;;;;;;;12.30;6.85;;;13.70;5.80;;;;;;5091692;28;20080;-56
2022/03/01 08:36:45;;;;;;;13.40;7.35;;;13.50;7.10;;;;;;5089483;28;20031;-59
2022/03/01 08:39:11;;;;;;;13.15;7.93;;;13.60;5.80;;;;;;5091899;28;20108;-59
2022/03/01 08:41:36;;;;;;;13.77;7.28;;;13.70;5.50;;;;;;5089484;28;20077;-58
2022/03/01 08:44:03;;;;;;;12.23;7.45;;;14.40;7.50;;;;;;5085083;28;20028;-59
2022/03/01 08:46:29;;;;;;;13.60;7.38;;;15.00;4.50;;;;;;5089223;28;20131;-56
2022/03/01 08:48:55;;;;;;;12.63;7.90;;;14.90;3.20;;;;;;5091668;28;20099;-59
2022/03/01 08:51:21;;;;;;;12.55;7.80;;;14.60;5.00;;;;;;5089631;28;20089;-59
2022/03/01 08:53:49;;;;;;;11.32;7.45;;;14.70;3.90;;;;;;5091552;28;20016;-59
2022/03/01 08:56:15;;;;;;;13.18;7.20;;;14.60;3.50;;;;;;5089336;28;20063;-58
2022/03/01 08:58:42;;;;;;;11.60;6.63;;;15.20;4.70;;;;;;5091299;28;20024;-55
2022/03/01 09:01:07;;;;;;;14.50;7.40;;;15.60;6.70;;;;;;5091199;28;20445;-60
2022/03/01 09:03:33;;;;;;;9.90;6.25;;;15.10;3.80;;;;;;5089234;28;20031;-58
2022/03/01 09:05:59;;;;;;;10.18;6.03;;;14.90;5.30;;;;;;5091127;28;20051;-59
2022/03/01 09:08:25;;;;;;;11.20;6.75;;;15.40;4.10;;;;;;5070317;28;20027;-58
2022/03/01 09:10:50;;;;;;;9.57;6.53;;;14.90;4.20;;;;;;5090132;28;20032;-57
2022/03/01 09:13:16;;;;;;;13.27;6.32;;;15.00;1.40;;;;;;5071789;28;20541;-58
2022/03/01 09:15:41;;;;;;;10.30;5.63;;;14.90;3.80;;;;;;5090334;28;20062;-59
2022/03/01 09:18:07;;;;;;;8.77;5.22;;;15.50;1.50;;;;;;5073048;28;20037;-59
2022/03/01 09:20:33;;;;;;;11.07;5.55;;;16.30;4.00;;;;;;5090216;28;20028;-57
2022/03/01 09:23:00;;;;;;;10.65;6.05;;;15.90;1.40;;;;;;5075346;28;20031;-59
2022/03/01 09:25:26;;;;;;;12.48;6.85;;;14.50;1.50;;;;;;5090778;28;20078;-57
2022/03/01 09:27:51;;;;;;;12.65;5.80;;;14.10;3.60;;;;;;5074899;28;20365;-59
2022/03/01 09:30:18;;;;;;;7.32;4.72;;;14.10;4.10;;;;;;5090149;28;20036;-58
2022/03/01 09:32:44;;;;;;;10.23;5.65;;;15.50;2.80;;;;;;5075338;28;20055;-59
2022/03/01 09:35:10;;;;;;;9.57;5.10;;;16.40;1.50;;;;;;5089798;28;20403;-58
2022/03/01 09:37:36;;;;;;;8.68;4.55;;;16.50;2.50;;;;;;5076871;28;20031;-59
2022/03/01 09:40:04;;;;;;;9.48;5.20;;;16.90;1.80;;;;;;5090063;28;20410;-59
2022/03/01 09:42:31;;;;;;;9.40;5.40;;;17.30;1.70;;;;;;5081393;28;20035;-58
2022/03/01 09:44:58;;;;;;;10.50;5.22;;;17.30;1.00;;;;;;5090223;28;20024;-58
2022/03/01 09:47:23;;;;;;;9.05;5.07;;;16.20;1.90;;;;;;5088218;28;20028;-58
2022/03/01 09:49:49;;;;;;;11.15;5.65;;;15.50;2.10;;;;;;5090207;28;20036;-59
2022/03/01 09:52:15;;;;;;;9.68;5.68;;;15.80;1.00;;;;;;5088442;28;20034;-59
2022/03/01 09:54:41;;;;;;;10.00;5.72;;;14.20;1.90;;;;;;5090376;28;20032;-59
2022/03/01 09:57:07;;;;;;;10.70;5.55;;;14.70;2.20;;;;;;5088228;28;20032;-58
2022/03/01 09:59:33;;;;;;;9.38;5.60;;;15.30;2.30;;;;;;5089885;28;20039;-58
2022/03/01 10:01:59;;;;;;;9.45;5.43;;;15.10;1.70;;;;;;5088035;28;20032;-56
2022/03/01 10:04:27;;;;;;;9.95;5.78;;;14.60;1.40;;;;;;5090345;28;20016;-54
2022/03/01 10:06:53;;;;;;;10.10;4.90;;;13.20;2.00;;;;;;5088294;28;20496;-52
2022/03/01 10:09:24;;;;;;;7.57;4.80;;;12.10;4.40;;;;;;5090414;28;20048;-55
2022/03/01 10:11:51;;;;;;;10.55;5.15;;;11.10;5.40;;;;;;5088956;28;20054;-55
2022/03/01 10:14:31;;;;;;;8.40;5.70;;;10.40;5.90;;;;;;5091446;28;20031;-56
2022/03/01 10:16:57;;;;;;;10.70;5.80;;;9.30;5.80;;;;;;5088842;28;20055;-56
2022/03/01 10:19:23;;;;;;;9.32;5.43;;;8.80;8.70;;;;;;5091101;28;20105;-56
2022/03/01 10:21:57;;;;;;;11.77;5.22;;;8.50;8.50;;;;;;5088946;28;20089;-53
2022/03/01 10:24:23;;;;;;;8.00;4.60;;;7.90;8.50;;;;;;5090562;28;20040;-53
2022/03/01 10:26:49;;;;;;;10.15;4.45;;;7.80;10.20;;;;;;5088683;28;20032;-56
2022/03/01 10:29:16;;;;;;;11.45;4.47;;;7.70;11.00;;;;;;5090851;28;20024;-56
2022/03/01 10:31:42;;;;;;;10.43;5.07;;;7.60;11.50;;;;;;5070304;28;20347;-54
2022/03/01 10:34:10;;;;;;;12.13;4.95;;;7.30;9.80;;;;;;5090867;28;20012;-54
2022/03/01 10:36:46;;;;;;;10.13;5.25;;;7.00;11.00;;;;;;5088359;28;20024;-56
2022/03/01 10:39:13;;;;;;;6.65;4.43;;;6.70;11.30;;;;;;5090787;28;20141;-55
2022/03/01 10:41:44;;;;;;;6.95;4.20;;;6.70;12.10;;;;;;5088005;28;20028;-53
2022/03/01 10:44:29;;;;;;;10.35;5.18;;;6.70;11.90;;;;;;5089498;28;20028;-55
2022/03/01 10:46:57;;;;;;;9.98;4.80;;;6.70;12.40;;;;;;5060385;28;20036;-56
2022/03/01 10:49:27;;;;;;;8.30;4.10;;;6.70;12.00;;;;;;5090473;28;20532;-52
2022/03/01 10:52:03;;;;;;;7.82;3.67;;;6.70;12.20;;;;;;5087992;28;20050;-54
2022/03/01 10:54:30;;;;;;;6.75;4.25;;;6.70;11.90;;;;;;5090387;28;20052;-53
2022/03/01 10:56:57;;;;;;;10.57;5.55;;;6.60;11.30;;;;;;5088095;28;20182;-54
2022/03/01 10:59:28;;;;;;;9.38;4.90;;;6.50;11.70;;;;;;5090640;28;20016;-54
2022/03/01 11:01:54;;;;;;;6.80;3.78;;;6.50;11.90;;;;;;5059925;28;20032;-71
2022/03/01 11:04:24;;;;;;;5.07;3.30;;;6.40;12.40;;;;;;5090147;28;20361;-72
2022/03/01 11:07:30;;;;;;;8.10;4.22;;;6.40;13.10;;;;;;5064064;28;20040;-71
2022/03/01 11:10:55;;;;;;;7.40;4.15;;;6.50;12.90;;;;;;5087567;28;20107;-71
2022/03/01 11:14:20;;;;;;;8.68;4.22;;;6.50;13.00;;;;;;5089811;28;20028;-71
2022/03/01 11:17:18;;;;;;;9.35;4.25;;;6.30;13.30;;;;;;5080104;28;20523;-71
2022/03/01 11:20:03;;;;;;;8.43;4.22;;;6.00;12.80;;;;;;5049463;28;20043;-71
2022/03/01 11:23:28;;;;;;;8.82;4.85;;;6.00;13.60;;;;;;5049922;28;20041;-71
2022/03/01 11:26:54;;;;;;;11.25;3.80;;;6.00;13.10;;;;;;5087450;28;20078;-71
2022/03/01 11:30:25;;;;;;;7.40;3.70;;;6.00;13.00;;;;;;5078322;28;20123;-71
2022/03/01 11:33:50;;;;;;;6.60;3.20;;;6.10;13.50;;;;;;5077744;28;20128;-71
2022/03/01 11:37:16;;;;;;;7.40;3.90;;;6.30;13.70;;;;;;5063711;28;20477;-71
2022/03/01 11:40:41;;;;;;;7.72;4.10;;;6.30;13.50;;;;;;5085403;28;20056;-71
2022/03/01 11:44:12;;;;;;;6.38;3.58;;;6.30;13.00;;;;;;5076354;28;20043;-71
2022/03/01 11:47:46;;;;;;;6.90;3.72;;;6.30;13.90;;;;;;5080509;28;20406;-69
2022/03/01 11:51:15;;;;;;;8.38;4.75;;;6.40;13.70;;;;;;5068420;28;20040;-68
2022/03/01 11:54:43;;;;;;;10.55;5.05;;;6.20;13.20;;;;;;5080608;28;20032;-67
2022/03/01 11:58:08;;;;;;;8.23;4.13;;;6.20;14.10;;;;;;5081951;28;20034;-68
2022/03/01 12:01:34;;;;;;;8.30;4.13;;;6.10;13.40;;;;;;5060843;28;20067;-68
2022/03/01 12:05:02;;;;;;;9.02;4.60;;;6.10;13.50;;;;;;5074918;28;20047;-68
2022/03/01 12:08:27;;;;;;;7.97;3.75;;;6.10;13.20;;;;;;5047567;28;20044;-69
2022/03/01 12:11:53;;;;;;;6.93;4.28;;;6.10;12.60;;;;;;5063154;28;20028;-69
2022/03/01 12:15:20;;;;;;;8.90;4.38;;;6.20;12.40;;;;;;5055497;28;20098;-69
2022/03/01 12:18:56;;;;;;;6.47;3.17;;;6.20;12.20;;;;;;5063452;28;20054;-68
2022/03/01 12:22:27;;;;;;;10.85;4.10;;;6.20;11.30;;;;;;5064672;28;20516;-68
2022/03/01 12:25:13;;;;;;;6.43;3.17;;;6.30;10.60;;;;;;5071094;28;20123;-68
2022/03/01 12:27:39;;;;;;;6.85;3.88;;;6.30;10.40;;;;;;5065025;28;20169;-68
2022/03/01 12:30:06;;;;;;;7.70;3.45;;;6.20;10.10;;;;;;5082872;28;20407;-69
2022/03/01 12:32:34;;;;;;;6.53;4.00;;;6.30;9.60;;;;;;5085702;28;20063;-68
2022/03/01 12:35:01;;;;;;;6.28;3.63;;;6.20;9.40;;;;;;5068200;28;20021;-67
2022/03/01 12:37:28;;;;;;;9.63;3.60;;;6.30;10.10;;;;;;5086522;28;20104;-68
2022/03/01 12:39:54;;;;;;;5.75;3.63;;;6.40;9.90;;;;;;5085097;28;20020;-68
2022/03/01 12:42:25;;;;;;;7.00;3.15;;;6.40;10.80;;;;;;5080924;28;20070;-68
2022/03/01 12:44:51;;;;;;;7.10;3.55;;;6.50;10.30;;;;;;5046288;28;20029;-68
2022/03/01 12:47:17;;;;;;;6.70;3.45;;;6.50;9.50;;;;;;5087993;28;20020;-68
2022/03/01 12:50:22;;;;;;;7.20;4.47;;;6.50;9.90;;;;;;5087807;28;20020;-68
2022/03/01 12:53:47;;;;;;;6.50;3.60;;;6.60;10.30;;;;;;5076094;28;20036;-68
2022/03/01 12:57:14;;;;;;;8.10;3.63;;;6.60;10.20;;;;;;5067742;28;20464;-67
2022/03/01 13:00:38;;;;;;;5.75;3.78;;;6.70;10.80;;;;;;5082653;28;20028;-69
2022/03/01 13:04:04;;;;;;;6.80;3.95;;;6.70;10.30;;;;;;5061486;28;20553;-71